METAR Data
IDs: Format: Raw Decoded Include TAF

Data at: 1630 UTC 18 Feb 2019

METAR for:KCIN (Carroll/Neu Arpt, IA, US)
Text:KCIN 181615Z AUTO 33007KT 10SM CLR M12/M15 A3045 RMK AO2
Temperature:-12.0°C ( 10°F)
Dewpoint:-15.0°C ( 5°F) [RH = 78%]
Pressure (altimeter):30.45 inches Hg (1031.2 mb)
Winds:from the NNW (330 degrees) at 8 MPH (7 knots; 3.6 m/s)
Visibility:10 or more sm (16+ km)
Ceiling:at least 12,000 feet AGL
Clouds:sky clear below 12,000 feet AGL
QC Flag:automated observation with no human augmentation